Time;durP1;ratioP1;P1;durP2;ratioP2;P2;SDS_P1;SDS_P2;PMS_P1;PMS_P2;Temp;Humidity;BMP_temperature;BMP_pressure;BME280_temperature;BME280_humidity;BME280_pressure;Samples;Min_cycle;Max_cycle;Signal;HPM_P1;HPM_P2
2021/08/01 00:01:23;;;;;;;0.90;0.67;;;;;;;;;;5048215;28;20489;-77
2021/08/01 00:03:50;;;;;;;0.60;0.60;;;;;;;;;;5046596;28;20435;-77
2021/08/01 00:06:16;;;;;;;1.00;1.00;;;;;;;;;;5043932;28;20481;-77
2021/08/01 00:08:42;;;;;;;0.90;0.80;;;;;;;;;;5056388;28;20471;-77
2021/08/01 00:11:08;;;;;;;1.00;0.70;;;;;;;;;;5046805;28;20403;-77
2021/08/01 00:13:34;;;;;;;0.97;0.80;;;;;;;;;;5046535;28;20417;-78
2021/08/01 00:16:01;;;;;;;0.60;0.50;;;;;;;;;;5050098;28;20455;-77
2021/08/01 00:18:27;;;;;;;0.60;0.60;;;;;;;;;;5052184;28;20410;-77
2021/08/01 00:20:53;;;;;;;0.70;0.70;;;;;;;;;;5051184;28;20984;-77
2021/08/01 00:23:18;;;;;;;0.67;0.67;;;;;;;;;;5047840;28;20500;-77
2021/08/01 00:25:44;;;;;;;0.97;0.90;;;;;;;;;;5048686;28;20510;-76
2021/08/01 00:28:10;;;;;;;0.80;0.67;;;;;;;;;;5051772;28;20410;-78
2021/08/01 00:30:36;;;;;;;0.70;0.60;;;;;;;;;;5046335;28;20543;-78
2021/08/01 00:33:02;;;;;;;0.80;0.80;;;;;;;;;;5043853;28;20518;-78
2021/08/01 00:35:28;;;;;;;2.00;1.53;;;;;;;;;;5052499;28;20509;-78
2021/08/01 00:37:54;;;;;;;0.60;0.60;;;;;;;;;;5047081;28;20437;-78
2021/08/01 00:40:22;;;;;;;0.83;0.80;;;;;;;;;;5047482;28;20800;-78
2021/08/01 00:42:48;;;;;;;0.60;0.60;;;;;;;;;;5052587;28;20425;-78
2021/08/01 00:45:14;;;;;;;0.90;0.90;;;;;;;;;;5058177;28;20480;-78
2021/08/01 00:47:41;;;;;;;0.90;0.77;;;;;;;;;;5043032;28;20419;-78
2021/08/01 00:50:07;;;;;;;0.70;0.67;;;;;;;;;;5050984;28;20438;-77
2021/08/01 00:52:36;;;;;;;0.80;0.80;;;;;;;;;;5048134;28;20450;-78
2021/08/01 00:55:06;;;;;;;1.43;0.87;;;;;;;;;;5051324;28;20410;-78
2021/08/01 00:57:32;;;;;;;0.60;0.60;;;;;;;;;;5049144;28;20488;-77
2021/08/01 00:59:58;;;;;;;0.80;0.70;;;;;;;;;;5039353;28;20415;-78
2021/08/01 01:02:27;;;;;;;0.73;0.60;;;;;;;;;;5052111;28;20468;-77
2021/08/01 01:04:58;;;;;;;1.83;0.87;;;;;;;;;;5042594;28;20460;-78
2021/08/01 01:07:43;;;;;;;0.70;0.70;;;;;;;;;;5047193;28;20402;-78
2021/08/01 01:10:17;;;;;;;0.87;0.87;;;;;;;;;;5050868;28;20439;-77
2021/08/01 01:12:45;;;;;;;1.97;0.70;;;;;;;;;;5047017;28;20447;-78
2021/08/01 01:15:20;;;;;;;2.63;0.97;;;;;;;;;;5039061;28;20449;-78
2021/08/01 01:17:48;;;;;;;0.60;0.60;;;;;;;;;;5046058;28;20458;-77
2021/08/01 01:20:24;;;;;;;0.60;0.60;;;;;;;;;;5046953;28;20426;-78
2021/08/01 01:23:03;;;;;;;0.60;0.60;;;;;;;;;;5044553;28;20439;-77
2021/08/01 01:25:29;;;;;;;0.90;0.70;;;;;;;;;;5049958;28;20453;-78
2021/08/01 01:28:05;;;;;;;0.60;0.60;;;;;;;;;;5045525;28;20959;-77
2021/08/01 01:30:32;;;;;;;0.60;0.60;;;;;;;;;;5052573;28;20428;-77
2021/08/01 01:33:05;;;;;;;0.70;0.70;;;;;;;;;;5045174;28;20468;-78
2021/08/01 01:35:36;;;;;;;0.80;0.70;;;;;;;;;;5050008;28;20459;-78
2021/08/01 01:38:02;;;;;;;0.83;0.80;;;;;;;;;;5050747;28;20446;-77
2021/08/01 01:40:28;;;;;;;0.70;0.63;;;;;;;;;;5038714;28;20450;-78
2021/08/01 01:42:55;;;;;;;0.80;0.70;;;;;;;;;;5051606;28;20859;-77
2021/08/01 01:45:22;;;;;;;0.70;0.70;;;;;;;;;;5051156;28;20486;-77
2021/08/01 01:47:52;;;;;;;0.83;0.83;;;;;;;;;;5049933;28;20440;-77
2021/08/01 01:50:18;;;;;;;0.80;0.80;;;;;;;;;;5048587;28;20427;-77
2021/08/01 01:52:50;;;;;;;0.70;0.60;;;;;;;;;;5048169;28;20927;-78
2021/08/01 01:55:19;;;;;;;0.73;0.63;;;;;;;;;;5045013;28;20941;-78
2021/08/01 01:57:46;;;;;;;3.63;1.00;;;;;;;;;;5050345;28;20524;-77
2021/08/01 02:00:12;;;;;;;1.03;0.93;;;;;;;;;;5047546;28;20436;-78
2021/08/01 02:02:38;;;;;;;0.70;0.57;;;;;;;;;;5047257;28;20414;-78
2021/08/01 02:05:05;;;;;;;0.80;0.80;;;;;;;;;;5045506;28;20477;-77
2021/08/01 02:07:31;;;;;;;0.60;0.60;;;;;;;;;;5047741;28;20436;-77
2021/08/01 02:10:04;;;;;;;0.60;0.60;;;;;;;;;;5040489;28;20418;-77
2021/08/01 02:12:33;;;;;;;1.10;0.67;;;;;;;;;;5044388;28;20748;-77
2021/08/01 02:15:09;;;;;;;1.00;0.90;;;;;;;;;;5051222;28;21067;-77
2021/08/01 02:17:50;;;;;;;0.87;0.67;;;;;;;;;;5043195;28;20432;-77
2021/08/01 02:20:18;;;;;;;1.63;0.97;;;;;;;;;;5047314;28;20892;-77
2021/08/01 02:22:45;;;;;;;0.87;0.70;;;;;;;;;;5040480;28;20484;-77
2021/08/01 02:25:12;;;;;;;0.60;0.60;;;;;;;;;;5040149;28;20482;-77
2021/08/01 02:27:39;;;;;;;1.53;1.37;;;;;;;;;;5040708;28;20406;-77
2021/08/01 02:30:05;;;;;;;0.93;0.80;;;;;;;;;;5040114;28;20404;-77
2021/08/01 02:32:32;;;;;;;0.60;0.60;;;;;;;;;;5046163;28;20402;-77
2021/08/01 02:34:59;;;;;;;0.60;0.50;;;;;;;;;;5048889;28;20893;-77
2021/08/01 02:37:26;;;;;;;0.60;0.60;;;;;;;;;;5051009;28;20493;-77
2021/08/01 02:39:52;;;;;;;0.60;0.60;;;;;;;;;;5049360;28;20436;-78
2021/08/01 02:42:18;;;;;;;0.80;0.80;;;;;;;;;;5045210;28;20465;-78
2021/08/01 02:44:45;;;;;;;0.70;0.60;;;;;;;;;;5049711;28;20934;-78
2021/08/01 02:47:13;;;;;;;0.83;0.83;;;;;;;;;;5047627;28;20540;-78
2021/08/01 02:49:43;;;;;;;0.80;0.60;;;;;;;;;;5048359;28;20452;-78
2021/08/01 02:52:11;;;;;;;0.60;0.60;;;;;;;;;;5042541;28;20914;-78
2021/08/01 02:54:38;;;;;;;0.70;0.70;;;;;;;;;;5046622;28;20452;-78
2021/08/01 02:57:04;;;;;;;0.60;0.60;;;;;;;;;;5048411;28;20454;-78
2021/08/01 02:59:31;;;;;;;1.73;1.63;;;;;;;;;;5046267;28;20779;-78
2021/08/01 03:01:58;;;;;;;0.90;0.90;;;;;;;;;;5042595;28;20412;-78
2021/08/01 03:04:25;;;;;;;1.43;1.07;;;;;;;;;;5045328;28;20425;-78
2021/08/01 03:06:52;;;;;;;1.10;1.00;;;;;;;;;;5038178;28;20452;-78
2021/08/01 03:09:18;;;;;;;0.60;0.60;;;;;;;;;;5042036;28;20413;-78
2021/08/01 03:11:44;;;;;;;1.13;1.03;;;;;;;;;;5041625;28;20435;-78
2021/08/01 03:14:10;;;;;;;0.70;0.60;;;;;;;;;;5038642;28;20487;-77
2021/08/01 03:16:36;;;;;;;1.37;0.90;;;;;;;;;;5042385;28;20905;-78
2021/08/01 03:19:02;;;;;;;1.07;0.67;;;;;;;;;;5045722;28;20410;-78
2021/08/01 03:21:28;;;;;;;0.63;0.60;;;;;;;;;;5050776;28;20416;-78
2021/08/01 03:23:54;;;;;;;0.60;0.60;;;;;;;;;;5044429;28;20439;-78
2021/08/01 03:26:19;;;;;;;0.60;0.50;;;;;;;;;;5043114;28;20458;-78
2021/08/01 03:28:45;;;;;;;1.63;1.53;;;;;;;;;;5041714;28;20410;-78
2021/08/01 03:31:11;;;;;;;1.10;1.00;;;;;;;;;;5041890;28;20991;-78
2021/08/01 03:33:37;;;;;;;1.00;1.00;;;;;;;;;;5046930;28;20817;-78
2021/08/01 03:36:03;;;;;;;0.60;0.60;;;;;;;;;;5052325;28;20461;-78
2021/08/01 03:38:29;;;;;;;0.73;0.73;;;;;;;;;;5053852;28;20836;-78
2021/08/01 03:40:56;;;;;;;0.70;0.70;;;;;;;;;;5045160;28;20434;-78
2021/08/01 03:43:22;;;;;;;1.03;0.80;;;;;;;;;;5051174;28;20431;-78
2021/08/01 03:45:48;;;;;;;0.73;0.73;;;;;;;;;;5054412;28;21012;-77
2021/08/01 03:48:14;;;;;;;0.90;0.90;;;;;;;;;;5050357;28;20417;-78
2021/08/01 03:50:40;;;;;;;0.90;0.90;;;;;;;;;;5051623;28;20424;-78
2021/08/01 03:53:06;;;;;;;0.80;0.73;;;;;;;;;;5050572;28;20990;-78
2021/08/01 03:55:32;;;;;;;1.53;1.43;;;;;;;;;;5050524;28;20458;-78
2021/08/01 03:57:58;;;;;;;3.03;0.77;;;;;;;;;;5051120;28;21083;-77
2021/08/01 04:00:23;;;;;;;0.90;0.90;;;;;;;;;;5052314;28;20440;-78
2021/08/01 04:02:49;;;;;;;0.90;0.70;;;;;;;;;;5046648;28;20990;-78
2021/08/01 04:05:15;;;;;;;1.20;0.80;;;;;;;;;;5050315;28;20935;-77
2021/08/01 04:07:41;;;;;;;0.73;0.60;;;;;;;;;;5052722;28;20416;-78
2021/08/01 04:10:07;;;;;;;1.03;0.90;;;;;;;;;;5045376;28;20442;-78
2021/08/01 04:12:33;;;;;;;0.80;0.70;;;;;;;;;;5045619;28;20424;-78
2021/08/01 04:14:59;;;;;;;2.30;2.10;;;;;;;;;;5050062;28;20522;-78
2021/08/01 04:17:28;;;;;;;1.77;0.93;;;;;;;;;;5045097;28;20925;-78
2021/08/01 04:19:54;;;;;;;0.80;0.70;;;;;;;;;;5051447;28;20414;-77
2021/08/01 04:22:20;;;;;;;0.83;0.80;;;;;;;;;;5049089;28;20410;-78
2021/08/01 04:24:46;;;;;;;1.73;1.00;;;;;;;;;;5051228;28;20864;-78
2021/08/01 04:27:12;;;;;;;0.70;0.70;;;;;;;;;;5051270;28;20430;-78
2021/08/01 04:29:38;;;;;;;1.00;1.00;;;;;;;;;;5056858;28;20422;-80
2021/08/01 04:32:04;;;;;;;1.10;0.80;;;;;;;;;;5059713;28;20410;-81
2021/08/01 04:34:30;;;;;;;0.87;0.83;;;;;;;;;;5051743;28;20432;-81
2021/08/01 04:36:55;;;;;;;0.70;0.70;;;;;;;;;;5050790;28;20443;-81
2021/08/01 04:39:21;;;;;;;1.20;0.80;;;;;;;;;;5049872;28;20439;-81
2021/08/01 04:41:47;;;;;;;1.53;1.07;;;;;;;;;;5055217;28;20457;-80
2021/08/01 04:44:13;;;;;;;0.80;0.70;;;;;;;;;;5058847;28;20446;-81
2021/08/01 04:46:39;;;;;;;2.83;2.40;;;;;;;;;;5055593;28;20481;-81
2021/08/01 04:49:05;;;;;;;0.70;0.60;;;;;;;;;;5054528;28;20410;-82
2021/08/01 04:51:31;;;;;;;0.70;0.60;;;;;;;;;;5049460;28;20405;-82
2021/08/01 04:53:57;;;;;;;1.17;1.07;;;;;;;;;;5052221;28;20440;-82
2021/08/01 04:56:23;;;;;;;1.27;1.17;;;;;;;;;;5057202;28;20965;-82
2021/08/01 04:58:49;;;;;;;1.27;1.23;;;;;;;;;;5049002;28;20598;-81
2021/08/01 05:01:17;;;;;;;0.70;0.70;;;;;;;;;;5052900;28;20428;-79
2021/08/01 05:03:43;;;;;;;0.70;0.70;;;;;;;;;;5055204;28;20548;-82
2021/08/01 05:06:10;;;;;;;1.13;0.90;;;;;;;;;;5051332;28;20911;-82
2021/08/01 05:08:36;;;;;;;1.67;1.57;;;;;;;;;;5059241;28;20927;-81
2021/08/01 05:11:02;;;;;;;1.37;1.23;;;;;;;;;;5062772;28;21099;-79
2021/08/01 05:13:28;;;;;;;0.87;0.87;;;;;;;;;;5056521;28;20409;-80
2021/08/01 05:15:54;;;;;;;3.37;0.80;;;;;;;;;;5065113;28;20467;-81
2021/08/01 05:18:20;;;;;;;0.80;0.60;;;;;;;;;;5064306;28;20418;-79
2021/08/01 05:20:47;;;;;;;1.10;0.70;;;;;;;;;;5065358;28;20417;-79
2021/08/01 05:23:13;;;;;;;2.07;1.87;;;;;;;;;;5065870;28;20443;-83
2021/08/01 05:25:39;;;;;;;1.40;1.30;;;;;;;;;;5060174;28;20450;-82
2021/08/01 05:28:05;;;;;;;0.80;0.80;;;;;;;;;;5064949;28;20495;-81
2021/08/01 05:30:31;;;;;;;0.80;0.80;;;;;;;;;;5053954;28;20429;-80
2021/08/01 05:32:57;;;;;;;2.37;0.93;;;;;;;;;;5058214;28;20446;-82
2021/08/01 05:35:23;;;;;;;0.80;0.80;;;;;;;;;;5061419;28;20497;-81
2021/08/01 05:37:49;;;;;;;1.67;1.57;;;;;;;;;;5066237;28;20450;-81
2021/08/01 05:40:15;;;;;;;0.80;0.80;;;;;;;;;;5058546;28;20441;-81
2021/08/01 05:42:41;;;;;;;0.77;0.73;;;;;;;;;;5059348;28;20460;-81
2021/08/01 05:45:07;;;;;;;0.97;0.97;;;;;;;;;;5060977;28;20546;-80
2021/08/01 05:47:37;;;;;;;0.87;0.73;;;;;;;;;;5072163;28;20958;-81
2021/08/01 05:50:03;;;;;;;0.73;0.63;;;;;;;;;;5054702;28;20423;-80
2021/08/01 05:52:29;;;;;;;1.53;1.20;;;;;;;;;;5046872;28;20441;-81
2021/08/01 05:54:55;;;;;;;1.17;0.87;;;;;;;;;;5049634;28;20907;-80
2021/08/01 05:57:21;;;;;;;1.53;1.43;;;;;;;;;;5042150;28;20441;-80
2021/08/01 05:59:47;;;;;;;0.93;0.83;;;;;;;;;;5043245;28;20406;-80
2021/08/01 06:02:14;;;;;;;0.83;0.83;;;;;;;;;;5041569;28;20409;-81
2021/08/01 06:04:40;;;;;;;1.90;1.20;;;;;;;;;;5043633;28;20420;-80
2021/08/01 06:07:09;;;;;;;1.47;0.70;;;;;;;;;;5045059;28;20453;-81
2021/08/01 06:09:35;;;;;;;1.33;1.23;;;;;;;;;;5060681;28;20415;-82
2021/08/01 06:12:01;;;;;;;0.83;0.83;;;;;;;;;;5048194;28;20942;-80
2021/08/01 06:14:27;;;;;;;0.70;0.60;;;;;;;;;;5047947;28;20457;-82
2021/08/01 06:16:53;;;;;;;2.20;1.70;;;;;;;;;;5042958;28;20490;-81
2021/08/01 06:19:19;;;;;;;0.70;0.60;;;;;;;;;;5054129;28;20402;-81
2021/08/01 06:21:45;;;;;;;0.83;0.83;;;;;;;;;;5041566;28;20468;-80
2021/08/01 06:24:12;;;;;;;1.23;0.67;;;;;;;;;;5049991;28;20527;-81
2021/08/01 06:26:38;;;;;;;1.73;1.63;;;;;;;;;;5044813;28;20471;-80
2021/08/01 06:29:04;;;;;;;0.70;0.60;;;;;;;;;;5036516;28;20411;-80
2021/08/01 06:31:31;;;;;;;0.70;0.60;;;;;;;;;;5044829;28;20407;-79
2021/08/01 06:33:58;;;;;;;1.07;0.97;;;;;;;;;;5042381;28;20403;-80
2021/08/01 06:36:24;;;;;;;0.77;0.77;;;;;;;;;;5045783;28;20448;-80
2021/08/01 06:38:50;;;;;;;1.20;0.87;;;;;;;;;;5047850;28;20407;-79
2021/08/01 06:41:16;;;;;;;0.70;0.60;;;;;;;;;;5062165;28;20387;-81
2021/08/01 06:43:42;;;;;;;0.80;0.70;;;;;;;;;;5083400;28;20395;-80
2021/08/01 06:46:08;;;;;;;0.80;0.60;;;;;;;;;;5063541;28;20434;-82
2021/08/01 06:48:34;;;;;;;0.80;0.80;;;;;;;;;;5063045;28;20411;-79
2021/08/01 06:51:02;;;;;;;1.13;1.03;;;;;;;;;;5047718;28;20409;-80
2021/08/01 06:53:28;;;;;;;0.73;0.73;;;;;;;;;;5046338;28;20410;-79
2021/08/01 06:55:54;;;;;;;8.00;1.53;;;;;;;;;;5045414;28;20447;-78
2021/08/01 06:58:20;;;;;;;1.30;1.20;;;;;;;;;;5049738;28;20440;-81
2021/08/01 07:00:47;;;;;;;1.10;0.70;;;;;;;;;;5043922;28;20467;-78
2021/08/01 07:03:13;;;;;;;0.70;0.70;;;;;;;;;;5045705;28;20413;-80
2021/08/01 07:05:39;;;;;;;2.10;0.97;;;;;;;;;;5046519;28;20457;-79
2021/08/01 07:08:05;;;;;;;1.30;0.70;;;;;;;;;;5049950;28;20406;-78
2021/08/01 07:10:31;;;;;;;0.70;0.60;;;;;;;;;;5042658;28;20464;-80
2021/08/01 07:13:02;;;;;;;1.03;1.00;;;;;;;;;;5040626;28;20451;-78
2021/08/01 07:15:28;;;;;;;2.20;0.87;;;;;;;;;;5043946;28;20424;-78
2021/08/01 07:17:57;;;;;;;1.10;1.00;;;;;;;;;;5041226;28;20410;-81
2021/08/01 07:20:24;;;;;;;1.53;0.60;;;;;;;;;;5044834;28;20527;-78
2021/08/01 07:22:50;;;;;;;1.07;0.97;;;;;;;;;;5041976;28;20418;-78
2021/08/01 07:25:16;;;;;;;1.07;0.97;;;;;;;;;;5048675;28;20463;-79
2021/08/01 07:27:42;;;;;;;1.10;1.00;;;;;;;;;;5039554;28;20463;-77
2021/08/01 07:30:09;;;;;;;1.23;0.97;;;;;;;;;;5048281;28;20481;-79
2021/08/01 07:32:35;;;;;;;0.90;0.80;;;;;;;;;;5039734;28;20429;-80
2021/08/01 07:35:01;;;;;;;0.70;0.70;;;;;;;;;;5043430;28;20458;-78
2021/08/01 07:37:27;;;;;;;1.40;0.83;;;;;;;;;;5045312;28;20444;-78
2021/08/01 07:39:53;;;;;;;1.00;0.70;;;;;;;;;;5036994;28;20973;-78
2021/08/01 07:42:18;;;;;;;0.70;0.60;;;;;;;;;;5045292;28;20405;-80
2021/08/01 07:44:53;;;;;;;0.70;0.60;;;;;;;;;;5050331;28;20404;-80
2021/08/01 07:47:20;;;;;;;0.83;0.60;;;;;;;;;;5042344;28;20448;-80
2021/08/01 07:49:48;;;;;;;0.70;0.70;;;;;;;;;;5042448;28;20467;-78
2021/08/01 07:52:14;;;;;;;0.67;0.63;;;;;;;;;;5040194;28;20452;-79
2021/08/01 07:54:40;;;;;;;0.70;0.70;;;;;;;;;;5047264;28;20930;-80
2021/08/01 07:57:06;;;;;;;0.70;0.60;;;;;;;;;;5044102;28;20427;-78
2021/08/01 07:59:33;;;;;;;0.93;0.70;;;;;;;;;;5052141;28;20426;-80
2021/08/01 08:01:58;;;;;;;0.70;0.60;;;;;;;;;;5034107;28;20787;-79
2021/08/01 08:04:24;;;;;;;0.70;0.60;;;;;;;;;;5042922;28;20514;-80
2021/08/01 08:06:51;;;;;;;0.63;0.60;;;;;;;;;;5044605;28;20474;-80
2021/08/01 08:09:18;;;;;;;1.70;0.93;;;;;;;;;;5036726;28;20406;-80
2021/08/01 08:11:43;;;;;;;0.60;0.50;;;;;;;;;;5041526;28;20515;-79
2021/08/01 08:14:09;;;;;;;0.80;0.60;;;;;;;;;;5046122;28;20496;-79
2021/08/01 08:16:35;;;;;;;1.73;0.80;;;;;;;;;;5045804;28;21005;-79
2021/08/01 08:19:01;;;;;;;0.83;0.80;;;;;;;;;;5038997;28;20387;-78
2021/08/01 08:21:27;;;;;;;0.60;0.53;;;;;;;;;;5040345;28;20440;-79
2021/08/01 08:23:53;;;;;;;0.90;0.80;;;;;;;;;;5048747;28;20449;-80
2021/08/01 08:26:19;;;;;;;2.70;0.83;;;;;;;;;;5043779;28;20477;-79
2021/08/01 08:28:45;;;;;;;1.17;1.07;;;;;;;;;;5044635;28;20433;-79
2021/08/01 08:31:11;;;;;;;0.70;0.60;;;;;;;;;;5048587;28;20512;-78
2021/08/01 08:33:38;;;;;;;0.77;0.60;;;;;;;;;;5046601;28;20442;-80
2021/08/01 08:36:04;;;;;;;0.80;0.80;;;;;;;;;;5041549;28;20453;-80
2021/08/01 08:38:30;;;;;;;0.70;0.70;;;;;;;;;;5038918;28;20440;-78
2021/08/01 08:40:56;;;;;;;0.70;0.70;;;;;;;;;;5047131;28;20414;-80
2021/08/01 08:43:22;;;;;;;0.70;0.60;;;;;;;;;;5053748;28;20508;-78
2021/08/01 08:45:48;;;;;;;1.03;1.03;;;;;;;;;;5052677;28;20493;-79
2021/08/01 08:48:16;;;;;;;0.60;0.60;;;;;;;;;;5047284;28;20432;-79
2021/08/01 08:50:42;;;;;;;0.80;0.80;;;;;;;;;;5043276;28;20502;-79
2021/08/01 08:53:08;;;;;;;0.70;0.60;;;;;;;;;;5042143;28;20443;-79
2021/08/01 08:55:35;;;;;;;1.00;0.60;;;;;;;;;;5047569;28;20470;-79
2021/08/01 08:58:05;;;;;;;0.60;0.60;;;;;;;;;;5052987;28;20440;-78
2021/08/01 09:00:31;;;;;;;0.70;0.60;;;;;;;;;;5040975;28;20520;-78
2021/08/01 09:02:57;;;;;;;0.67;0.60;;;;;;;;;;5042382;28;20442;-80
2021/08/01 09:05:23;;;;;;;1.37;0.63;;;;;;;;;;5047204;28;20473;-79
2021/08/01 09:07:50;;;;;;;0.80;0.70;;;;;;;;;;5043056;28;20410;-79
2021/08/01 09:10:16;;;;;;;0.87;0.70;;;;;;;;;;5037944;28;20432;-79
2021/08/01 09:12:42;;;;;;;0.70;0.70;;;;;;;;;;5045565;28;21114;-78
2021/08/01 09:15:18;;;;;;;0.80;0.60;;;;;;;;;;5046117;28;20410;-80
2021/08/01 09:17:45;;;;;;;0.70;0.60;;;;;;;;;;5043979;28;20400;-79
2021/08/01 09:20:20;;;;;;;0.87;0.80;;;;;;;;;;5042273;28;20427;-80
2021/08/01 09:23:01;;;;;;;0.60;0.50;;;;;;;;;;5044210;28;20781;-79
2021/08/01 09:25:31;;;;;;;0.60;0.50;;;;;;;;;;5050226;28;20452;-82
2021/08/01 09:28:08;;;;;;;0.70;0.60;;;;;;;;;;5047552;28;20431;-79
2021/08/01 09:30:46;;;;;;;0.80;0.80;;;;;;;;;;5043332;28;20448;-80
2021/08/01 09:33:12;;;;;;;0.80;0.80;;;;;;;;;;5047508;28;20532;-80
2021/08/01 09:35:39;;;;;;;0.60;0.50;;;;;;;;;;5050226;28;20459;-78
2021/08/01 09:38:06;;;;;;;1.07;0.80;;;;;;;;;;5038393;28;20417;-79
2021/08/01 09:40:33;;;;;;;0.60;0.50;;;;;;;;;;5044569;28;20439;-77
2021/08/01 09:43:09;;;;;;;0.70;0.60;;;;;;;;;;5041484;28;20545;-79
2021/08/01 09:45:36;;;;;;;0.60;0.50;;;;;;;;;;5034737;28;21023;-80
2021/08/01 09:48:15;;;;;;;0.63;0.60;;;;;;;;;;5045344;28;20441;-77
2021/08/01 09:51:01;;;;;;;0.60;0.60;;;;;;;;;;5036028;28;20422;-79
2021/08/01 09:53:27;;;;;;;0.73;0.73;;;;;;;;;;5057536;28;20480;-80
2021/08/01 09:56:09;;;;;;;4.00;0.80;;;;;;;;;;5041141;28;20482;-79
2021/08/01 09:58:36;;;;;;;0.70;0.60;;;;;;;;;;5064192;28;20442;-80
2021/08/01 10:01:02;;;;;;;1.17;1.07;;;;;;;;;;5042088;28;20415;-77
2021/08/01 10:03:54;;;;;;;0.70;0.63;;;;;;;;;;5041101;28;20840;-80
2021/08/01 10:06:21;;;;;;;0.70;0.70;;;;;;;;;;5044579;28;20474;-80
2021/08/01 10:08:48;;;;;;;0.97;0.93;;;;;;;;;;5066558;28;20528;-78
2021/08/01 10:11:15;;;;;;;0.80;0.77;;;;;;;;;;5039753;28;20427;-80
2021/08/01 10:13:41;;;;;;;0.60;0.50;;;;;;;;;;5054673;28;20433;-78
2021/08/01 10:16:09;;;;;;;0.70;0.60;;;;;;;;;;5044773;28;20459;-79
2021/08/01 10:18:35;;;;;;;1.77;0.90;;;;;;;;;;5043430;28;20442;-80
2021/08/01 10:21:02;;;;;;;0.80;0.80;;;;;;;;;;5043674;28;20439;-78
2021/08/01 10:23:28;;;;;;;0.80;0.73;;;;;;;;;;5042440;28;20416;-81
2021/08/01 10:25:54;;;;;;;3.43;1.07;;;;;;;;;;5049553;28;20474;-80
2021/08/01 10:28:23;;;;;;;0.60;0.60;;;;;;;;;;5047805;28;20484;-81
2021/08/01 10:30:50;;;;;;;0.83;0.80;;;;;;;;;;5036325;28;20458;-79
2021/08/01 10:33:19;;;;;;;0.70;0.60;;;;;;;;;;5050729;28;20435;-79
2021/08/01 10:35:52;;;;;;;0.70;0.63;;;;;;;;;;5040770;28;20523;-80
2021/08/01 10:38:19;;;;;;;0.90;0.60;;;;;;;;;;5043021;28;20514;-79
2021/08/01 10:40:51;;;;;;;0.70;0.70;;;;;;;;;;5039253;28;20446;-79
2021/08/01 10:43:20;;;;;;;0.90;0.70;;;;;;;;;;5041501;28;20468;-79
2021/08/01 10:45:46;;;;;;;0.87;0.73;;;;;;;;;;5066445;28;20482;-80
2021/08/01 10:48:12;;;;;;;0.80;0.80;;;;;;;;;;5052137;28;20443;-78
2021/08/01 10:50:39;;;;;;;0.70;0.70;;;;;;;;;;5051388;28;20488;-80
2021/08/01 10:53:20;;;;;;;0.70;0.63;;;;;;;;;;5041735;28;20440;-79
2021/08/01 10:55:46;;;;;;;0.80;0.50;;;;;;;;;;5052568;28;21046;-79
2021/08/01 10:58:13;;;;;;;0.70;0.53;;;;;;;;;;5040730;28;20805;-80
2021/08/01 11:00:55;;;;;;;0.97;0.80;;;;;;;;;;5051245;28;20427;-81
2021/08/01 11:03:21;;;;;;;0.70;0.60;;;;;;;;;;5052752;28;20433;-80
2021/08/01 11:05:47;;;;;;;0.80;0.80;;;;;;;;;;5055298;28;20503;-79
2021/08/01 11:08:14;;;;;;;0.63;0.57;;;;;;;;;;5043128;28;20453;-79
2021/08/01 11:10:41;;;;;;;0.70;0.60;;;;;;;;;;5050002;28;20490;-79
2021/08/01 11:13:25;;;;;;;0.60;0.50;;;;;;;;;;5049382;28;20439;-80
2021/08/01 11:15:52;;;;;;;0.60;0.50;;;;;;;;;;5043692;28;20470;-78
2021/08/01 11:18:36;;;;;;;1.10;0.70;;;;;;;;;;5046503;28;20609;-77
2021/08/01 11:21:05;;;;;;;0.60;0.50;;;;;;;;;;5045359;28;20487;-77
2021/08/01 11:23:46;;;;;;;0.93;0.93;;;;;;;;;;5049541;28;20443;-79
2021/08/01 11:26:13;;;;;;;0.70;0.60;;;;;;;;;;5040735;28;20505;-79
2021/08/01 11:28:41;;;;;;;0.60;0.50;;;;;;;;;;5044726;28;20432;-77
2021/08/01 11:31:08;;;;;;;0.70;0.70;;;;;;;;;;5047217;28;20432;-78
2021/08/01 11:33:43;;;;;;;0.70;0.70;;;;;;;;;;5044332;28;20440;-78
2021/08/01 11:36:12;;;;;;;0.60;0.60;;;;;;;;;;5055395;28;20446;-77
2021/08/01 11:38:58;;;;;;;0.60;0.50;;;;;;;;;;5059760;28;20941;-78
2021/08/01 11:43:58;;;;;;;1.17;0.97;;;;;;;;;;5051826;28;20438;-79
2021/08/01 11:46:25;;;;;;;0.80;0.70;;;;;;;;;;5053146;28;20472;-79
2021/08/01 11:49:00;;;;;;;0.70;0.70;;;;;;;;;;5075146;22;20436;-78
2021/08/01 11:51:27;;;;;;;1.37;0.90;;;;;;;;;;5059012;28;20549;-77
2021/08/01 11:53:53;;;;;;;0.90;0.60;;;;;;;;;;5066416;28;20516;-80
2021/08/01 11:56:19;;;;;;;0.70;0.53;;;;;;;;;;5072105;28;20427;-78
2021/08/01 11:58:46;;;;;;;0.60;0.47;;;;;;;;;;5075383;28;20888;-78
2021/08/01 12:01:12;;;;;;;1.23;0.83;;;;;;;;;;5056649;28;20509;-79
2021/08/01 12:03:40;;;;;;;0.60;0.50;;;;;;;;;;5062111;28;20437;-79
2021/08/01 12:06:05;;;;;;;0.60;0.50;;;;;;;;;;5057698;28;21607;-79
2021/08/01 12:08:32;;;;;;;0.60;0.50;;;;;;;;;;5052675;28;20517;-78
2021/08/01 12:11:24;;;;;;;0.67;0.67;;;;;;;;;;5050690;28;20428;-78
2021/08/01 12:14:03;;;;;;;0.70;0.60;;;;;;;;;;5044626;28;20440;-79
2021/08/01 12:16:29;;;;;;;0.60;0.43;;;;;;;;;;5053114;28;20435;-78
2021/08/01 12:19:11;;;;;;;0.60;0.50;;;;;;;;;;5057903;28;20508;-78
2021/08/01 12:21:38;;;;;;;0.60;0.50;;;;;;;;;;5058738;28;20952;-79
2021/08/01 12:24:05;;;;;;;0.77;0.77;;;;;;;;;;5056030;28;20420;-78
2021/08/01 12:26:38;;;;;;;0.60;0.50;;;;;;;;;;5059383;28;20475;-79
2021/08/01 12:29:04;;;;;;;0.90;0.90;;;;;;;;;;5056396;28;20434;-78
2021/08/01 12:31:31;;;;;;;1.07;0.60;;;;;;;;;;5054838;28;20789;-77
2021/08/01 12:33:57;;;;;;;0.70;0.60;;;;;;;;;;5056953;28;20458;-78
2021/08/01 12:36:27;;;;;;;0.60;0.50;;;;;;;;;;5055984;28;20431;-78
2021/08/01 12:38:53;;;;;;;0.70;0.63;;;;;;;;;;5054910;28;20408;-78
2021/08/01 12:41:20;;;;;;;0.60;0.60;;;;;;;;;;5053061;28;20940;-77
2021/08/01 12:43:47;;;;;;;0.80;0.80;;;;;;;;;;5053675;28;20404;-78
2021/08/01 12:46:19;;;;;;;0.60;0.50;;;;;;;;;;5050330;28;21000;-77
2021/08/01 12:48:49;;;;;;;0.60;0.50;;;;;;;;;;5039335;28;20459;-77
2021/08/01 12:51:15;;;;;;;0.70;0.60;;;;;;;;;;5054077;28;20426;-77
2021/08/01 12:53:42;;;;;;;0.70;0.60;;;;;;;;;;5050058;28;20418;-76
2021/08/01 12:56:11;;;;;;;0.70;0.67;;;;;;;;;;5046588;28;20804;-76
2021/08/01 12:58:37;;;;;;;0.90;0.70;;;;;;;;;;5052960;28;20772;-76
2021/08/01 13:01:04;;;;;;;0.80;0.80;;;;;;;;;;5054605;28;20453;-76
2021/08/01 13:03:31;;;;;;;0.63;0.57;;;;;;;;;;5053860;28;20427;-76
2021/08/01 13:05:57;;;;;;;0.90;0.87;;;;;;;;;;5057208;28;20604;-76
2021/08/01 13:08:36;;;;;;;0.70;0.70;;;;;;;;;;5056622;28;20421;-76
2021/08/01 13:11:02;;;;;;;0.80;0.80;;;;;;;;;;5051997;28;20508;-76
2021/08/01 13:13:28;;;;;;;0.83;0.83;;;;;;;;;;5050285;28;20432;-76
2021/08/01 13:16:01;;;;;;;1.40;0.90;;;;;;;;;;5051614;28;20526;-77
2021/08/01 13:18:31;;;;;;;0.63;0.57;;;;;;;;;;5043140;28;20443;-77
2021/08/01 13:20:58;;;;;;;0.80;0.73;;;;;;;;;;5041379;28;20615;-77
2021/08/01 13:23:27;;;;;;;0.60;0.50;;;;;;;;;;5053710;28;20987;-77
2021/08/01 13:25:53;;;;;;;0.60;0.60;;;;;;;;;;5045735;28;20848;-77
2021/08/01 13:28:39;;;;;;;0.80;0.80;;;;;;;;;;5042690;28;20477;-77
2021/08/01 13:31:05;;;;;;;0.70;0.60;;;;;;;;;;5054022;28;20475;-77
2021/08/01 13:33:31;;;;;;;0.60;0.50;;;;;;;;;;5053746;28;20445;-77
2021/08/01 13:35:57;;;;;;;0.87;0.87;;;;;;;;;;5047952;28;20448;-78
2021/08/01 13:38:26;;;;;;;0.90;0.90;;;;;;;;;;5052070;28;20517;-77
2021/08/01 13:40:52;;;;;;;0.60;0.60;;;;;;;;;;5050380;28;20448;-77
2021/08/01 13:43:20;;;;;;;0.60;0.60;;;;;;;;;;5053632;28;20871;-77
2021/08/01 13:45:47;;;;;;;1.00;0.60;;;;;;;;;;5050978;28;20840;-77
2021/08/01 13:48:13;;;;;;;0.90;0.70;;;;;;;;;;5056095;28;20430;-78
2021/08/01 13:50:39;;;;;;;0.70;0.70;;;;;;;;;;5053732;28;20456;-76
2021/08/01 13:53:05;;;;;;;2.00;0.90;;;;;;;;;;5051541;28;20786;-76
2021/08/01 13:55:32;;;;;;;0.77;0.70;;;;;;;;;;5051645;28;20454;-76
2021/08/01 13:58:01;;;;;;;0.70;0.63;;;;;;;;;;5045078;28;20419;-76
2021/08/01 14:00:27;;;;;;;0.80;0.80;;;;;;;;;;5052285;28;20443;-76
2021/08/01 14:02:53;;;;;;;0.83;0.60;;;;;;;;;;5052519;28;20782;-75
2021/08/01 14:05:19;;;;;;;0.70;0.70;;;;;;;;;;5052356;28;20451;-76
2021/08/01 14:07:45;;;;;;;0.77;0.77;;;;;;;;;;5051051;28;20457;-76
2021/08/01 14:10:11;;;;;;;0.60;0.50;;;;;;;;;;5052003;28;20445;-76
2021/08/01 14:12:39;;;;;;;0.77;0.70;;;;;;;;;;5052992;28;20411;-76
2021/08/01 14:15:08;;;;;;;0.70;0.70;;;;;;;;;;5051792;28;20428;-76
2021/08/01 14:17:34;;;;;;;0.80;0.77;;;;;;;;;;5051198;28;20423;-76
2021/08/01 14:20:00;;;;;;;0.60;0.60;;;;;;;;;;5052333;28;20462;-76
2021/08/01 14:22:26;;;;;;;0.70;0.60;;;;;;;;;;5052469;28;20469;-76
2021/08/01 14:24:52;;;;;;;0.90;0.90;;;;;;;;;;5052473;28;20415;-75
2021/08/01 14:27:22;;;;;;;0.70;0.70;;;;;;;;;;5051793;28;20477;-76
2021/08/01 14:29:48;;;;;;;0.60;0.50;;;;;;;;;;5052662;28;20526;-74
2021/08/01 14:32:15;;;;;;;1.10;0.70;;;;;;;;;;5052128;28;20424;-76
2021/08/01 14:34:42;;;;;;;0.80;0.80;;;;;;;;;;5052361;28;20793;-75
2021/08/01 14:37:08;;;;;;;0.60;0.60;;;;;;;;;;5052297;28;20422;-74
2021/08/01 14:39:37;;;;;;;0.70;0.60;;;;;;;;;;5052407;28;20766;-74
2021/08/01 14:42:03;;;;;;;0.70;0.67;;;;;;;;;;5052018;28;20424;-74
2021/08/01 14:44:29;;;;;;;0.60;0.60;;;;;;;;;;5049862;28;20436;-74
2021/08/01 14:46:57;;;;;;;0.60;0.57;;;;;;;;;;5052008;28;20483;-74
2021/08/01 14:49:29;;;;;;;0.67;0.60;;;;;;;;;;5052153;28;20452;-74